Latest Coastal Weather Observations for Sydney Harbour

IDN60701

Issued at 9:22 am EDT Thursday 29 January 2015 (issued every 10 minutes, with the page automatically refreshed every 10 minutes)

About coastal observations | Map of coastal stations | Coastal observations for NSW | Marine services | Other Formats
Station Details ID: 066196 Name: WEDDING CAKE WEST Lat: -33.84 Lon: 151.26 Height: 6.0 m
Data from the previous 72 hours. | See also: Recent months for locations in New South Wales
Date/Time
EDT
Temp

°C
Wind Pressure Rain
since 9am
mm
Weather Cloud Vis
km
Sea
Height
m
Swell
Dir
 
Speed
knots
Gust
knots
hPa Trend Height
m
Period
s
Dir
29/09:00am 17.9 SSW 20 24 - - - - - - - - - -
29/08:30am 17.8 SW 20 25 - - - - - - - - - -
29/08:00am 17.5 SW 19 24 - - - - - - - - - -
29/07:52am 17.5 SW 18 23 - - - - - - - - - -
29/07:30am 16.9 WSW 13 17 - - - - - - - - - -
29/07:00am 16.8 WSW 15 21 - - - - - - - - - -
29/06:30am 17.0 SW 15 19 - - - - - - - - - -
29/06:00am 16.1 WSW 11 15 - - - - - - - - - -
29/05:30am 16.3 W 13 18 - - - - - - - - - -
29/05:00am 16.3 W 14 19 - - - - - - - - - -
29/04:30am 16.9 WSW 13 17 - - - - - - - - - -
29/04:00am 17.0 WSW 12 16 - - - - - - - - - -
29/03:30am 17.7 SW 17 21 - - - - - - - - - -
29/03:00am 17.8 SW 18 21 - - - - - - - - - -
29/02:30am 18.2 SW 18 24 - - - - - - - - - -
29/02:00am 18.5 SSW 18 27 - - - - - - - - - -
29/01:30am 18.4 SW 17 23 - - - - - - - - - -
29/01:00am 18.6 SW 16 19 - - - - - - - - - -
29/12:30am 19.0 SW 18 23 - - - - - - - - - -
29/12:00am 18.7 SW 14 19 - - - - - - - - - -
 
Date/Time
EDT
Temp

°C
Wind Pressure Rain
since 9am
mm
Weather Cloud Vis
km
Sea
Height
m
Swell
Dir
 
Speed
knots
Gust
knots
hPa Trend Height
m
Period
s
Dir
28/11:30pm 19.0 SW 14 17 - - - - - - - - - -
28/11:00pm 19.2 SW 16 20 - - - - - - - - - -
28/10:30pm 19.1 SW 15 19 - - - - - - - - - -
28/10:00pm 19.6 SW 16 19 - - - - - - - - - -
28/09:30pm 19.4 SW 17 20 - - - - - - - - - -
28/09:00pm 19.8 SW 19 23 - - - - - - - - - -
28/08:30pm 19.8 SW 14 16 - - - - - - - - - -
28/08:00pm 19.4 SW 16 19 - - - - - - - - - -
28/07:30pm 19.9 SSW 18 23 - - - - - - - - - -
28/07:15pm 19.8 SSW 20 26 - - - - - - - - - -
28/07:00pm 19.0 S 15 19 - - - - - - - - - -
28/06:30pm 20.6 SSW 13 16 - - - - - - - - - -
28/06:00pm 19.6 S 6 8 - - - - - - - - - -
28/05:30pm 18.5 S 14 19 - - - - - - - - - -
28/05:00pm 21.0 SSW 10 16 - - - - - - - - - -
28/04:30pm 19.5 SSE 1 5 - - - - - - - - - -
28/04:00pm 18.8 SSE 6 8 - - - - - - - - - -
28/03:30pm 18.1 SSW 11 14 - - - - - - - - - -
28/03:00pm 17.7 WSW 7 10 - - - - - - - - - -
28/02:30pm 17.6 S 10 13 - - - - - - - - - -
28/02:00pm 19.3 S 7 10 - - - - - - - - - -
28/01:30pm 18.9 SSE 5 8 - - - - - - - - - -
28/01:00pm 18.4 SSE 8 11 - - - - - - - - - -
28/12:32pm 18.2 SE 15 26 - - - - - - - - - -
28/12:30pm 19.0 SE 13 26 - - - - - - - - - -
28/12:00pm 19.2 SSE 11 15 - - - - - - - - - -
28/11:30am 19.4 S 11 20 - - - - - - - - - -
28/11:00am 19.3 SSE 14 21 - - - - - - - - - -
28/10:30am 19.8 S 9 13 - - - - - - - - - -
28/10:00am 19.3 SSW 13 16 - - - - - - - - - -
28/09:30am 19.2 SSW 12 16 - - - - - - - - - -
28/09:00am 18.7 S 11 14 - - - - - - - - - -
28/08:30am 18.9 S 14 18 - - - - - - - - - -
28/08:00am 18.2 SE 9 14 - - - - - - - - - -
28/07:30am 18.2 SW 11 14 - - - - - - - - - -
28/07:00am 18.1 WSW 12 14 - - - - - - - - - -
28/06:30am 17.9 SW 9 11 - - - - - - - - - -
28/06:00am 18.3 SSW 11 14 - - - - - - - - - -
28/05:30am 18.0 SSE 11 17 - - - - - - - - - -
28/05:00am 18.5 S 10 13 - - - - - - - - - -
28/04:30am 19.2 S 13 18 - - - - - - - - - -
28/04:00am 19.3 WSW 9 12 - - - - - - - - - -
28/03:30am 18.8 NW 9 15 - - - - - - - - - -
28/03:00am 20.3 WSW 8 10 - - - - - - - - - -
28/02:30am 19.3 WSW 5 9 - - - - - - - - - -
28/02:00am 19.6 WSW 7 11 - - - - - - - - - -
28/01:30am 20.1 S 5 9 - - - - - - - - - -
28/01:00am 18.5 WSW 7 8 - - - - - - - - - -
28/12:30am 18.7 SSE 9 13 - - - - - - - - - -
28/12:00am 19.3 WSW 7 8 - - - - - - - - - -
 
Date/Time
EDT
Temp

°C
Wind Pressure Rain
since 9am
mm
Weather Cloud Vis
km
Sea
Height
m
Swell
Dir
 
Speed
knots
Gust
knots
hPa Trend Height
m
Period
s
Dir
27/11:30pm 18.5 SW 6 7 - - - - - - - - - -
27/11:00pm 19.0 S 4 5 - - - - - - - - - -
27/10:30pm 18.9 S 2 4 - - - - - - - - - -
27/10:00pm 19.3 ESE 5 8 - - - - - - - - - -
27/09:30pm 18.8 ENE 4 5 - - - - - - - - - -
27/09:00pm 18.8 E 7 9 - - - - - - - - - -
27/08:30pm 19.2 ESE 9 13 - - - - - - - - - -
27/08:00pm 19.0 SE 10 13 - - - - - - - - - -
27/07:30pm 19.0 SSE 9 11 - - - - - - - - - -
27/07:00pm 19.2 ESE 5 7 - - - - - - - - - -
27/06:30pm 19.3 SE 8 12 - - - - - - - - - -
27/06:00pm 19.9 NE 4 6 - - - - - - - - - -
27/05:30pm 18.8 N 7 10 - - - - - - - - - -
27/05:00pm 18.4 N 6 7 - - - - - - - - - -
27/04:30pm 18.5 NE 5 7 - - - - - - - - - -
27/04:00pm 18.6 ENE 9 11 - - - - - - - - - -
27/03:30pm 19.1 E 11 14 - - - - - - - - - -
27/03:00pm 20.0 ENE 10 12 - - - - - - - - - -
27/02:30pm 20.0 ESE 8 11 - - - - - - - - - -
27/02:00pm 20.2 ESE 10 13 - - - - - - - - - -
27/01:30pm 20.2 ESE 9 12 - - - - - - - - - -
27/01:00pm 19.9 ENE 10 12 - - - - - - - - - -
27/12:30pm 19.3 ENE 8 11 - - - - - - - - - -
27/12:00pm 19.1 E 11 13 - - - - - - - - - -
27/11:30am 19.4 ESE 5 7 - - - - - - - - - -
27/11:00am 19.3 E 10 13 - - - - - - - - - -
27/10:30am 19.3 ESE 10 14 - - - - - - - - - -
27/10:00am 19.2 SSE 7 10 - - - - - - - - - -
27/09:30am 19.3 E 14 19 - - - - - - - - - -
27/09:00am 19.1 E 13 17 - - - - - - - - - -
27/08:30am 19.3 E 10 13 - - - - - - - - - -
27/08:00am 19.6 ESE 10 19 - - - - - - - - - -
27/07:30am 19.8 SSE 10 13 - - - - - - - - - -
27/07:00am 19.9 S 13 16 - - - - - - - - - -
27/06:30am 19.9 S 13 17 - - - - - - - - - -
27/06:00am 19.9 SSE 12 17 - - - - - - - - - -
27/05:30am 19.9 S 11 13 - - - - - - - - - -
27/05:00am 19.9 S 8 10 - - - - - - - - - -
27/04:30am 20.1 SSE 5 7 - - - - - - - - - -
27/04:00am 20.4 SE 8 11 - - - - - - - - - -
27/03:30am 20.2 SE 9 12 - - - - - - - - - -
27/03:00am 19.9 ESE 12 15 - - - - - - - - - -
27/02:30am 19.8 ESE 14 21 - - - - - - - - - -
27/02:00am 19.8 ESE 15 19 - - - - - - - - - -
27/01:30am 20.0 E 16 21 - - - - - - - - - -
27/01:00am 19.8 ENE 14 19 - - - - - - - - - -
27/12:30am 20.9 SE 12 16 - - - - - - - - - -
27/12:00am 21.0 SSE 7 10 - - - - - - - - - -
 
Date/Time
EDT
Temp

°C
Wind Pressure Rain
since 9am
mm
Weather Cloud Vis
km
Sea
Height
m
Swell
Dir
 
Speed
knots
Gust
knots
hPa Trend Height
m
Period
s
Dir
26/11:30pm 20.1 S 9 10 - - - - - - - - - -
26/11:00pm 20.2 SSE 8 11 - - - - - - - - - -
26/10:30pm 20.2 SE 4 7 - - - - - - - - - -
26/10:00pm 19.9 SW 4 6 - - - - - - - - - -
26/09:30pm 19.4 E 2 5 - - - - - - - - - -
26/09:00pm 19.4 SSE 3 4 - - - - - - - - - -
26/08:30pm 19.3 S 6 7 - - - - - - - - - -
26/08:00pm 19.2 S 7 9 - - - - - - - - - -
26/07:30pm 19.4 SSE 9 11 - - - - - - - - - -
26/07:00pm 19.2 SE 10 13 - - - - - - - - - -
26/06:30pm 19.5 SSE 12 15 - - - - - - - - - -
26/06:00pm 19.1 S 11 15 - - - - - - - - - -
26/05:30pm 19.2 S 13 16 - - - - - - - - - -
26/05:00pm 19.4 S 15 19 - - - - - - - - - -
26/04:30pm 19.5 S 16 19 - - - - - - - - - -
26/04:00pm 19.6 S 15 19 - - - - - - - - - -
26/03:30pm 19.8 SSW 14 16 - - - - - - - - - -
26/03:00pm 19.9 S 14 19 - - - - - - - - - -
26/02:30pm 19.8 S 14 18 - - - - - - - - - -
26/02:00pm 19.5 S 13 18 - - - - - - - - - -
26/01:30pm 19.7 SSW 13 17 - - - - - - - - - -
26/01:00pm 21.2 S 12 17 - - - - - - - - - -
26/12:30pm 21.3 S 15 19 - - - - - - - - - -
26/12:00pm 20.6 S 14 19 - - - - - - - - - -
26/11:30am 21.2 S 15 23 - - - - - - - - - -
26/11:28am 21.1 S 14 23 - - - - - - - - - -
26/11:00am 21.5 SSE 9 13 - - - - - - - - - -
26/10:30am 22.1 SE 10 14 - - - - - - - - - -
26/10:00am 20.7 SW 15 18 - - - - - - - - - -
26/09:30am 21.0 SSE 11 16 - - - - - - - - - -

Other Formats:

Comma delimited format used in spreadsheet applications
http://www.bom.gov.au/fwo/IDN60701/IDN60701.95766.axf

JavaScript Object Notation format (JSON) in row-major order
http://www.bom.gov.au/fwo/IDN60701/IDN60701.95766.json